Open Text Operating Margin 2006-2021 | OTEX

Current and historical operating margin for Open Text (OTEX) over the last 10 years. The current operating profit margin for Open Text as of June 30, 2021 is 26.16%.
Open Text Operating Margin Historical Data
Date TTM Revenue TTM Operating Income Operating Margin
2021-06-30 $3.39B $0.74B 21.85%
2021-03-31 $3.32B $0.66B 19.85%
2020-12-31 $3.30B $0.60B 18.23%
2020-09-30 $3.22B $0.55B 17.18%
2020-06-30 $3.11B $0.50B 16.20%
2020-03-31 $3.03B $0.57B 18.84%
2019-12-31 $2.94B $0.61B 20.85%
2019-09-30 $2.90B $0.60B 20.74%
2019-06-30 $2.87B $0.57B 19.77%
2019-03-31 $2.88B $0.56B 19.41%
2018-12-31 $2.84B $0.53B 18.47%
2018-09-30 $2.84B $0.52B 18.23%
2018-06-30 $2.82B $0.51B 18.01%
2018-03-31 $2.73B $0.46B 17.03%
2017-12-31 $2.63B $0.43B 16.19%
2017-09-30 $2.44B $0.37B 14.99%
2017-06-30 $2.29B $0.35B 15.36%
2017-03-31 $2.11B $0.34B 16.05%
2016-12-31 $1.96B $0.36B 18.52%
2016-09-30 $1.88B $0.37B 19.45%
2016-06-30 $1.83B $0.37B 20.16%
2016-03-31 $1.82B $0.36B 19.63%
2015-12-31 $1.83B $0.32B 17.59%
2015-09-30 $1.83B $0.32B 17.61%
2015-06-30 $1.85B $0.35B 18.89%
2015-03-31 $1.86B $0.38B 20.12%
2014-12-31 $1.86B $0.39B 20.93%
2014-09-30 $1.76B $0.35B 20.06%
2014-06-30 $1.63B $0.30B 18.52%
2014-03-31 $1.48B $0.24B 16.37%
2013-12-31 $1.37B $0.22B 15.73%
2013-09-30 $1.36B $0.21B 15.36%
2013-06-30 $1.36B $0.20B 14.45%
2013-03-31 $1.32B $0.19B 14.22%
2012-12-31 $1.28B $0.17B 13.64%
2012-09-30 $1.25B $0.16B 13.01%
2012-06-30 $1.21B $0.15B 12.34%
2012-03-31 $1.19B $0.14B 11.72%
2011-12-31 $1.16B $0.14B 12.19%
2011-09-30 $1.10B $0.14B 12.87%
2011-06-30 $1.03B $0.15B 14.53%
2011-03-31 $0.99B $0.13B 12.87%
2010-12-31 $0.94B $0.13B 13.98%
2010-09-30 $0.92B $0.12B 13.18%
2010-06-30 $0.91B $0.11B 11.95%
2010-03-31 $0.88B $0.14B 15.77%
2009-12-31 $0.85B $0.13B 14.99%
2009-09-30 $0.81B $0.11B 13.88%
2009-06-30 $0.79B $0.11B 14.38%
2009-03-31 $0.78B $0.11B 13.54%
2008-12-31 $0.77B $0.11B 13.90%
2008-09-30 $0.75B $0.10B 13.83%
2008-06-30 $0.73B $0.10B 13.91%
2008-03-31 $0.70B $0.10B 13.69%
2007-12-31 $0.68B $0.09B 12.68%
2007-09-30 $0.66B $0.07B 11.25%
2007-06-30 $0.60B $0.06B 10.76%
2007-03-31 $0.53B $0.05B 9.90%
2006-12-31 $0.47B $0.05B 10.21%
2006-09-30 $0.42B $0.05B 11.48%
2006-06-30 $0.41B $0.04B 9.51%
2006-03-31 $0.41B $0.03B 7.97%
2005-12-31 $0.42B $0.03B 6.94%
Sector Industry Market Cap Revenue
Computer and Technology Computer Software $14.256B $3.386B
Open Text Corporation is engaged in development of innovative intranet, extranet and e-Business applications. Since creating one of the first search engines to index the World Wide Web, the company has remained at the forefront of Internet-based technologies. Open Text solutions allow individuals, teams, organizations, and global trading communities to collaborate on projects, share ideas and accelerate innovation to the fastest possible speed. Open Text Corporation is headquartered in Waterloo, Canada.
Stock Name Country Market Cap PE Ratio
Microsoft (MSFT) United States $2293.695B 38.30
Adobe (ADBE) United States $316.858B 68.29
Salesforce, Inc (CRM) United States $254.892B 76.13
Oracle (ORCL) United States $238.906B 20.63
SAP SE (SAP) Germany $177.961B 22.63
Intuit (INTU) United States $156.449B 76.38
Dassault Systemes SA (DASTY) France $79.473B 69.78
Autodesk (ADSK) United States $63.906B 106.87
VMware (VMW) United States $58.579B 27.54
Synopsys (SNPS) United States $51.146B 69.87
Cadence Design Systems (CDNS) United States $46.391B 64.96
ANSYS (ANSS) United States $32.676B 65.70
SS&C Technologies Holdings (SSNC) United States $18.141B 16.26
Nuance Communications (NUAN) United States $17.377B 153.47
PTC (PTC) United States $14.731B 51.43
Citrix Systems (CTXS) United States $13.784B 32.44
Pegasystems (PEGA) United States $10.749B 0.00
Manhattan Associates (MANH) United States $10.124B 107.89
Aspen Technology (AZPN) United States $8.597B 38.15
Trend Micro (TMICY) Japan $8.141B 30.45
Descartes Systems Group (DSGX) Canada $6.970B 99.24
MicroStrategy (MSTR) United States $6.170B 114.47
BlackBerry (BB) Canada $5.761B 254.00
Cornerstone OnDemand (CSOD) United States $3.820B 22.18
ACI Worldwide (ACIW) United States $3.744B 21.83
CommVault Systems (CVLT) United States $3.594B 93.29
Blackbaud (BLKB) United States $3.321B 56.61
Verint Systems (VRNT) United States $2.928B 21.22
Progress Software (PRGS) United States $2.021B 15.61
Bottomline Technologies (EPAY) United States $1.861B 177.30
QAD (QADB) United States $1.828B 120.83
PROS Holdings (PRO) United States $1.762B 0.00
Sapiens (SPNS) Israel $1.544B 27.64
Canaan (CAN) China $1.227B 0.00
OptimizeRx (OPRX) United States $1.225B 631.91
Avid Technology (AVID) United States $1.204B 30.00
Magic Software Enterprises (MGIC) Israel $1.022B 24.81
Simulations Plus (SLP) United States $0.888B 77.39
American Software (AMSWA) United States $0.835B 89.57
Icad Inc (ICAD) United States $0.259B 0.00
Smith Micro Software (SMSI) United States $0.253B 0.00
ServiceSource (SREV) United States $0.134B 0.00
Park City (PCYG) United States $0.103B 48.27
Neonode (NEON) Sweden $0.067B 0.00
BSQUARE (BSQR) United States $0.050B 0.00
NetSol Technologies (NTWK) United States $0.044B 17.73
GSE Systems (GVP) United States $0.028B 0.00